Acme, Michigan
Current Conditions -  °F | °C
As of 3:53 PM on Monday 24 Nov 2014 (Local Time) from KTVC Reporting Station
Light Rain Light Rain  
Wind Chill:   Ceiling: 700
Heat Index:   Visibility: 2mi
Dew Point:   Wind: 10mph
Humidity: 89%   Direction: 330°NNW
Pressure: 29.11"   Gusts: NA
Location:  44.77°N, 85.5°W
Report Text: KTVC 242053Z 33009KT 2SM -RA BR OVC007 06/04 A2911 RMK AO2 SLP861 P0002 60004 T00560039 53034
Loading
Personal Weather Stations






























Interactive Weather Map New forecast layout! Learn more

10-Day Weather Forecast

Advertisements
Track Severe Weather on mobile